createdAt,value
2018-06-25T00:00:12.275Z,99693.00
2018-06-25T00:02:42.738Z,99689.00
2018-06-25T00:05:13.502Z,99687.00
2018-06-25T00:07:44.363Z,99685.00
2018-06-25T00:10:15.065Z,99687.00
2018-06-25T00:12:45.956Z,99686.00
2018-06-25T00:15:17.514Z,99688.00
2018-06-25T00:17:48.601Z,99685.00
2018-06-25T00:20:19.666Z,99684.00
2018-06-25T00:22:50.565Z,99683.00
2018-06-25T00:25:21.217Z,99679.00
2018-06-25T00:27:52.089Z,99684.00
2018-06-25T00:30:22.844Z,99682.00
2018-06-25T00:32:53.732Z,99684.00
2018-06-25T00:35:24.726Z,99683.00
2018-06-25T00:37:55.304Z,99681.00
2018-06-25T00:40:26.157Z,99676.00
2018-06-25T00:42:59.529Z,99686.00
2018-06-25T00:45:30.733Z,99680.00
2018-06-25T00:48:01.124Z,99683.00
2018-06-25T00:50:31.658Z,99682.00
2018-06-25T00:53:03.305Z,99689.00
2018-06-25T00:55:33.860Z,99692.00
2018-06-25T00:58:04.654Z,99691.00
2018-06-25T01:00:35.308Z,99696.00
2018-06-25T01:03:06.338Z,99696.00
2018-06-25T01:05:37.016Z,99702.00
2018-06-25T01:08:07.507Z,99701.00
2018-06-25T01:10:38.328Z,99706.00
2018-06-25T01:13:10.110Z,99707.00
2018-06-25T01:15:40.770Z,99706.00
2018-06-25T01:18:10.809Z,99708.00
2018-06-25T01:20:41.983Z,99709.00
2018-06-25T01:23:12.988Z,99713.00
2018-06-25T01:25:43.867Z,99722.00
2018-06-25T01:28:14.541Z,99728.00
2018-06-25T01:30:45.277Z,99724.00
2018-06-25T01:33:16.145Z,99725.00
2018-06-25T01:35:46.612Z,99721.00
2018-06-25T01:38:17.647Z,99730.00
2018-06-25T01:40:47.816Z,99726.00
2018-06-25T01:43:18.453Z,99724.00
2018-06-25T01:45:49.156Z,99719.00
2018-06-25T01:48:19.831Z,99724.00
2018-06-25T01:50:50.581Z,99730.00
2018-06-25T01:53:21.462Z,99734.00
2018-06-25T01:55:52.313Z,99734.00
2018-06-25T01:58:22.851Z,99723.00
2018-06-25T02:00:53.582Z,99729.00
2018-06-25T02:03:24.331Z,99726.00
2018-06-25T02:05:55.187Z,99729.00
2018-06-25T02:08:26.197Z,99731.00
2018-06-25T02:10:57.009Z,99735.00
2018-06-25T02:13:27.632Z,99729.00
2018-06-25T02:15:58.559Z,99732.00
2018-06-25T02:18:29.351Z,99732.00
2018-06-25T02:21:00.309Z,99735.00
2018-06-25T02:23:30.943Z,99740.00
2018-06-25T02:26:01.496Z,99744.00
2018-06-25T02:28:32.521Z,99745.00
2018-06-25T02:31:03.211Z,99747.00
2018-06-25T02:33:34.210Z,99751.00
2018-06-25T02:36:05.051Z,99749.00
2018-06-25T02:38:35.927Z,99746.00
2018-06-25T02:41:07.096Z,99757.00
2018-06-25T02:43:37.895Z,99750.00
2018-06-25T02:46:08.774Z,99753.00
2018-06-25T02:48:39.388Z,99749.00
2018-06-25T02:51:10.339Z,99753.00
2018-06-25T02:53:40.816Z,99753.00
2018-06-25T02:56:11.705Z,99752.00
2018-06-25T02:58:42.279Z,99751.00
2018-06-25T03:01:12.971Z,99746.00
2018-06-25T03:03:43.757Z,99753.00
2018-06-25T03:06:14.813Z,99747.00
2018-06-25T03:08:45.031Z,99759.00
2018-06-25T03:11:15.785Z,99763.00
2018-06-25T03:13:46.576Z,99763.00
2018-06-25T03:16:17.575Z,99768.00
2018-06-25T03:18:47.971Z,99766.00
2018-06-25T03:21:18.580Z,99766.00
2018-06-25T03:23:49.880Z,99779.00
2018-06-25T03:26:20.776Z,99777.00
2018-06-25T03:28:51.404Z,99771.00
2018-06-25T03:31:22.371Z,99770.00
2018-06-25T03:33:53.543Z,99770.00
2018-06-25T03:36:24.494Z,99770.00
2018-06-25T03:38:54.513Z,99773.00
2018-06-25T03:41:25.117Z,99772.00
2018-06-25T03:43:55.937Z,99773.00
2018-06-25T03:46:26.426Z,99773.00
2018-06-25T03:48:57.189Z,99779.00
2018-06-25T03:51:28.809Z,99780.00
2018-06-25T03:53:59.814Z,99783.00
2018-06-25T03:56:30.816Z,99782.00
2018-06-25T03:59:01.664Z,99784.00
2018-06-25T04:01:31.543Z,99780.00
2018-06-25T04:04:01.457Z,99784.00
2018-06-25T04:06:31.447Z,99783.00
2018-06-25T04:09:01.432Z,99794.00
2018-06-25T04:11:31.397Z,99792.00
2018-06-25T04:14:01.302Z,99794.00
2018-06-25T04:16:31.171Z,99793.00
2018-06-25T04:19:03.912Z,99794.00
2018-06-25T04:21:35.825Z,99799.00
2018-06-25T04:24:05.728Z,99798.00
2018-06-25T04:26:35.549Z,99794.00
2018-06-25T04:29:05.449Z,99793.00
2018-06-25T04:31:35.338Z,99783.00
2018-06-25T04:34:05.177Z,99782.00
2018-06-25T04:36:35.182Z,99786.00
2018-06-25T04:39:07.273Z,99784.00
2018-06-25T04:41:37.044Z,99785.00
2018-06-25T04:44:06.858Z,99786.00
2018-06-25T04:46:37.097Z,99787.00
2018-06-25T04:49:07.253Z,99793.00
2018-06-25T04:51:37.121Z,99782.00
2018-06-25T04:54:07.054Z,99792.00
2018-06-25T04:56:36.974Z,99785.00
2018-06-25T04:59:06.771Z,99783.00
2018-06-25T05:01:36.614Z,99779.00
2018-06-25T05:04:06.434Z,99778.00
2018-06-25T05:06:36.353Z,99775.00
2018-06-25T05:09:08.861Z,99773.00
2018-06-25T05:11:38.786Z,99772.00
2018-06-25T05:14:08.673Z,99779.00
2018-06-25T05:16:38.581Z,99784.00
2018-06-25T05:19:08.362Z,99777.00
2018-06-25T05:21:38.282Z,99777.00
2018-06-25T05:24:08.104Z,99775.00
2018-06-25T05:26:38.000Z,99775.00
2018-06-25T05:29:07.972Z,99772.00
2018-06-25T05:31:37.781Z,99770.00
2018-06-25T05:34:07.785Z,99776.00
2018-06-25T05:36:37.634Z,99772.00
2018-06-25T05:39:09.782Z,99769.00
2018-06-25T05:41:39.752Z,99772.00
2018-06-25T05:44:09.560Z,99775.00
2018-06-25T05:46:39.366Z,99779.00
2018-06-25T05:49:09.991Z,99779.00
2018-06-25T05:51:40.049Z,99783.00
2018-06-25T05:54:10.087Z,99787.00
2018-06-25T05:56:40.032Z,99792.00
2018-06-25T05:59:10.137Z,99794.00
2018-06-25T06:01:40.113Z,99792.00
2018-06-25T06:04:10.115Z,99789.00
2018-06-25T06:06:40.208Z,99785.00
2018-06-25T06:09:10.972Z,99785.00
2018-06-25T06:11:40.834Z,99786.00
2018-06-25T06:14:10.720Z,99791.00
2018-06-25T06:16:40.788Z,99790.00
2018-06-25T06:19:10.875Z,99785.00
2018-06-25T06:21:40.704Z,99779.00
2018-06-25T06:24:10.562Z,99781.00
2018-06-25T06:26:40.701Z,99775.00
2018-06-25T06:29:10.590Z,99773.00
2018-06-25T06:31:41.287Z,99776.00
2018-06-25T06:34:11.191Z,99768.00
2018-06-25T06:36:41.214Z,99768.00
2018-06-25T06:39:13.962Z,99763.00
2018-06-25T06:41:45.089Z,99754.00
2018-06-25T06:44:15.463Z,99750.00
2018-06-25T06:46:45.334Z,99742.00
2018-06-25T06:49:15.216Z,99742.00
2018-06-25T06:51:45.124Z,99740.00
2018-06-25T06:54:15.022Z,99735.00
2018-06-25T06:56:44.948Z,99728.00
2018-06-25T06:59:14.977Z,99724.00
2018-06-25T07:01:44.924Z,99718.00
2018-06-25T07:04:14.892Z,99724.00
2018-06-25T07:06:44.770Z,99716.00
2018-06-25T07:09:14.841Z,99717.00
2018-06-25T07:11:44.775Z,99722.00
2018-06-25T07:14:14.836Z,99721.00
2018-06-25T07:16:44.723Z,99716.00
2018-06-25T07:19:14.623Z,99715.00
2018-06-25T07:21:44.489Z,99714.00
2018-06-25T07:24:14.308Z,99708.00
2018-06-25T07:26:44.209Z,99703.00
2018-06-25T07:29:14.126Z,99706.00
2018-06-25T07:31:43.971Z,99713.00
2018-06-25T07:34:13.899Z,99708.00
2018-06-25T07:36:43.889Z,99711.00
2018-06-25T07:39:13.755Z,99702.00
2018-06-25T07:41:43.503Z,99702.00
2018-06-25T07:44:13.392Z,99698.00
2018-06-25T07:46:43.242Z,99693.00
2018-06-25T07:49:13.094Z,99690.00
2018-06-25T07:51:42.940Z,99688.00
2018-06-25T07:54:12.898Z,99678.00
2018-06-25T07:56:42.710Z,99677.00
2018-06-25T07:59:12.587Z,99675.00
2018-06-25T08:01:42.603Z,99676.00
2018-06-25T08:04:12.379Z,99676.00
2018-06-25T08:06:42.181Z,99680.00
2018-06-25T08:09:12.524Z,99676.00
2018-06-25T08:11:42.334Z,99681.00
2018-06-25T08:14:12.251Z,99684.00
2018-06-25T08:16:42.150Z,99682.00
2018-06-25T08:19:11.551Z,99684.00
2018-06-25T08:21:41.335Z,99681.00
2018-06-25T08:24:11.068Z,99679.00
2018-06-25T08:26:40.987Z,99681.00
2018-06-25T08:29:10.769Z,99672.00
2018-06-25T08:31:40.556Z,99682.00
2018-06-25T08:34:10.378Z,99682.00
2018-06-25T08:36:40.264Z,99674.00
2018-06-25T08:39:12.092Z,99677.00
2018-06-25T08:41:42.420Z,99673.00
2018-06-25T08:44:12.274Z,99668.00
2018-06-25T08:46:42.128Z,99665.00
2018-06-25T08:49:11.950Z,99663.00
2018-06-25T08:51:41.882Z,99674.00
2018-06-25T08:54:11.725Z,99668.00
2018-06-25T08:56:41.508Z,99663.00
2018-06-25T08:59:11.444Z,99658.00
2018-06-25T09:01:41.302Z,99653.00
2018-06-25T09:04:11.141Z,99650.00
2018-06-25T09:06:40.947Z,99650.00
2018-06-25T09:09:12.356Z,99646.00
2018-06-25T09:11:42.604Z,99660.00
2018-06-25T09:14:12.359Z,99650.00
2018-06-25T09:16:42.227Z,99653.00
2018-06-25T09:19:12.035Z,99651.00
2018-06-25T09:21:41.849Z,99643.00
2018-06-25T09:24:11.736Z,99641.00
2018-06-25T09:26:42.471Z,99644.00
2018-06-25T09:29:12.984Z,99640.00
2018-06-25T09:31:42.705Z,99637.00
2018-06-25T09:34:17.625Z,99632.00
2018-06-25T09:36:47.424Z,99630.00
2018-06-25T09:39:17.274Z,99622.00
2018-06-25T09:41:47.244Z,99623.00
2018-06-25T09:44:16.933Z,99622.00
2018-06-25T09:46:46.786Z,99620.00
2018-06-25T09:49:16.576Z,99618.00
2018-06-25T09:51:46.487Z,99610.00
2018-06-25T09:54:16.286Z,99607.00
2018-06-25T09:56:46.101Z,99605.00
2018-06-25T09:59:16.004Z,99600.00
2018-06-25T10:01:45.703Z,99608.00
2018-06-25T10:04:15.553Z,99605.00
2018-06-25T10:06:45.311Z,99597.00
2018-06-25T10:09:15.166Z,99588.00
2018-06-25T10:11:45.000Z,99589.00
2018-06-25T10:14:14.769Z,99585.00
2018-06-25T10:16:44.628Z,99584.00
2018-06-25T10:19:15.217Z,99582.00
2018-06-25T10:21:45.084Z,99568.00
2018-06-25T10:24:14.944Z,99576.00
2018-06-25T10:26:44.762Z,99568.00
2018-06-25T10:29:14.645Z,99574.00
2018-06-25T10:31:44.483Z,99576.00
2018-06-25T10:34:14.356Z,99571.00
2018-06-25T10:36:44.345Z,99564.00
2018-06-25T10:39:14.329Z,99557.00
2018-06-25T10:41:44.323Z,99557.00
2018-06-25T10:44:14.212Z,99551.00
2018-06-25T10:46:44.138Z,99557.00
2018-06-25T10:49:14.129Z,99543.00
2018-06-25T10:51:44.001Z,99534.00
2018-06-25T10:54:13.848Z,99535.00
2018-06-25T10:56:43.685Z,99539.00
2018-06-25T10:59:13.848Z,99539.00
2018-06-25T11:01:43.818Z,99540.00
2018-06-25T11:04:13.679Z,99544.00
2018-06-25T11:06:43.598Z,99527.00
2018-06-25T11:09:13.560Z,99525.00
2018-06-25T11:11:43.572Z,99523.00
2018-06-25T11:14:13.466Z,99530.00
2018-06-25T11:16:43.531Z,99530.00
2018-06-25T11:19:13.644Z,99528.00
2018-06-25T11:21:43.527Z,99533.00
2018-06-25T11:24:13.338Z,99536.00
2018-06-25T11:26:43.392Z,99531.00
2018-06-25T11:29:13.538Z,99524.00
2018-06-25T11:31:43.525Z,99519.00
2018-06-25T11:34:13.596Z,99527.00
2018-06-25T11:36:43.756Z,99520.00
2018-06-25T11:39:13.582Z,99506.00
2018-06-25T11:41:43.453Z,99514.00
2018-06-25T11:44:13.331Z,99504.00
2018-06-25T11:46:43.282Z,99506.00
2018-06-25T11:49:13.273Z,99513.00
2018-06-25T11:51:43.237Z,99512.00
2018-06-25T11:54:13.040Z,99502.00
2018-06-25T11:56:43.009Z,99498.00
2018-06-25T11:59:12.901Z,99511.00
2018-06-25T12:01:43.010Z,99490.00
2018-06-25T12:04:12.954Z,99474.00
2018-06-25T12:06:42.834Z,99471.00
2018-06-25T12:09:12.917Z,99473.00
2018-06-25T12:11:42.793Z,99472.00
2018-06-25T12:14:12.653Z,99464.00
2018-06-25T12:16:42.465Z,99464.00
2018-06-25T12:19:12.220Z,99483.00
2018-06-25T12:21:42.039Z,99494.00
2018-06-25T12:24:11.874Z,99488.00
2018-06-25T12:26:41.669Z,99473.00
2018-06-25T12:29:11.461Z,99465.00
2018-06-25T12:31:41.298Z,99454.00
2018-06-25T12:34:11.428Z,99452.00
2018-06-25T12:36:41.461Z,99460.00
2018-06-25T12:39:11.608Z,99455.00
2018-06-25T12:41:41.550Z,99454.00
2018-06-25T12:44:11.430Z,99448.00
2018-06-25T12:46:41.230Z,99453.00
2018-06-25T12:49:11.095Z,99443.00
2018-06-25T12:51:40.835Z,99450.00
2018-06-25T12:54:10.604Z,99435.00
2018-06-25T12:56:40.471Z,99438.00
2018-06-25T12:59:10.194Z,99439.00
2018-06-25T13:01:40.094Z,99434.00
2018-06-25T13:04:09.867Z,99440.00
2018-06-25T13:06:39.712Z,99440.00
2018-06-25T13:09:12.021Z,99436.00
2018-06-25T13:11:41.858Z,99432.00
2018-06-25T13:14:11.674Z,99440.00
2018-06-25T13:16:41.539Z,99440.00
2018-06-25T13:19:11.347Z,99447.00
2018-06-25T13:21:41.104Z,99444.00
2018-06-25T13:24:11.019Z,99447.00
2018-06-25T13:26:40.772Z,99441.00
2018-06-25T13:29:10.599Z,99436.00
2018-06-25T13:31:40.381Z,99444.00
2018-06-25T13:34:10.267Z,99450.00
2018-06-25T13:36:40.108Z,99455.00
2018-06-25T13:39:10.614Z,99455.00
2018-06-25T13:41:40.421Z,99451.00
2018-06-25T13:44:10.178Z,99450.00
2018-06-25T13:46:39.985Z,99448.00
2018-06-25T13:49:09.837Z,99449.00
2018-06-25T13:51:39.716Z,99442.00
2018-06-25T13:54:09.642Z,99440.00
2018-06-25T13:56:39.496Z,99444.00
2018-06-25T13:59:09.347Z,99443.00
2018-06-25T14:01:39.085Z,99438.00
2018-06-25T14:04:08.930Z,99437.00
2018-06-25T14:06:38.871Z,99432.00
2018-06-25T14:09:10.724Z,99426.00
2018-06-25T14:11:40.874Z,99427.00
2018-06-25T14:14:10.721Z,99428.00
2018-06-25T14:16:40.600Z,99433.00
2018-06-25T14:19:10.440Z,99424.00
2018-06-25T14:21:40.290Z,99425.00
2018-06-25T14:24:15.399Z,99421.00
2018-06-25T14:26:45.907Z,99417.00
2018-06-25T14:29:36.196Z,99418.00
2018-06-25T14:32:15.177Z,99420.00
2018-06-25T14:34:49.538Z,99417.00
2018-06-25T14:37:19.376Z,99404.00
2018-06-25T14:39:49.209Z,99399.00
2018-06-25T14:42:19.001Z,99397.00
2018-06-25T14:44:48.862Z,99396.00
2018-06-25T14:47:18.754Z,99389.00
2018-06-25T14:49:48.540Z,99408.00
2018-06-25T14:52:18.375Z,99403.00
2018-06-25T14:54:48.267Z,99403.00
2018-06-25T14:57:18.120Z,99401.00
2018-06-25T14:59:47.897Z,99399.00
2018-06-25T15:02:17.662Z,99401.00
2018-06-25T15:04:47.648Z,99404.00
2018-06-25T15:07:17.490Z,99396.00
2018-06-25T15:09:47.270Z,99404.00
2018-06-25T15:12:17.081Z,99404.00
2018-06-25T15:14:46.846Z,99405.00
2018-06-25T15:17:16.605Z,99401.00
2018-06-25T15:19:46.418Z,99411.00
2018-06-25T15:22:16.174Z,99408.00
2018-06-25T15:24:45.994Z,99411.00
2018-06-25T15:27:15.816Z,99412.00
2018-06-25T15:29:45.554Z,99409.00
2018-06-25T15:32:15.460Z,99406.00
2018-06-25T15:34:45.206Z,99404.00
2018-06-25T15:37:14.996Z,99398.00
2018-06-25T15:39:44.743Z,99396.00
2018-06-25T15:42:14.425Z,99403.00
2018-06-25T15:44:44.229Z,99399.00
2018-06-25T15:47:14.002Z,99398.00
2018-06-25T15:49:43.764Z,99397.00
2018-06-25T15:52:13.616Z,99396.00
2018-06-25T15:54:43.348Z,99392.00
2018-06-25T15:57:13.109Z,99392.00
2018-06-25T15:59:42.886Z,99393.00
2018-06-25T16:02:12.681Z,99391.00
2018-06-25T16:04:42.547Z,99388.00
2018-06-25T16:07:12.256Z,99385.00
2018-06-25T16:09:42.102Z,99389.00
2018-06-25T16:12:11.924Z,99391.00
2018-06-25T16:14:41.756Z,99390.00
2018-06-25T16:17:11.569Z,99397.00
2018-06-25T16:19:41.353Z,99390.00
2018-06-25T16:22:11.201Z,99397.00
2018-06-25T16:24:41.016Z,99395.00
2018-06-25T16:27:10.814Z,99395.00
2018-06-25T16:29:40.707Z,99408.00
2018-06-25T16:32:10.539Z,99405.00
2018-06-25T16:34:40.336Z,99409.00
2018-06-25T16:37:10.067Z,99412.00
2018-06-25T16:39:39.869Z,99412.00
2018-06-25T16:42:09.758Z,99422.00
2018-06-25T16:44:39.520Z,99428.00
2018-06-25T16:47:09.343Z,99426.00
2018-06-25T16:49:39.180Z,99434.00
2018-06-25T16:52:09.023Z,99438.00
2018-06-25T16:54:38.881Z,99440.00
2018-06-25T16:57:08.651Z,99438.00
2018-06-25T16:59:38.474Z,99441.00
2018-06-25T17:02:08.271Z,99452.00
2018-06-25T17:04:38.130Z,99457.00
2018-06-25T17:07:07.941Z,99444.00
2018-06-25T17:09:37.749Z,99445.00
2018-06-25T17:12:07.570Z,99445.00
2018-06-25T17:14:37.414Z,99443.00
2018-06-25T17:17:07.261Z,99444.00
2018-06-25T17:19:36.999Z,99444.00
2018-06-25T17:22:06.841Z,99442.00
2018-06-25T17:24:36.578Z,99443.00
2018-06-25T17:27:06.546Z,99442.00
2018-06-25T17:29:36.328Z,99434.00
2018-06-25T17:32:06.094Z,99440.00
2018-06-25T17:34:35.924Z,99442.00
2018-06-25T17:37:05.699Z,99444.00
2018-06-25T17:39:35.587Z,99446.00
2018-06-25T17:42:05.520Z,99450.00
2018-06-25T17:44:35.266Z,99448.00
2018-06-25T17:47:05.100Z,99455.00
2018-06-25T17:49:34.829Z,99462.00
2018-06-25T17:52:04.749Z,99462.00
2018-06-25T17:54:34.676Z,99460.00
2018-06-25T17:57:04.633Z,99468.00
2018-06-25T17:59:34.432Z,99465.00
2018-06-25T18:02:04.202Z,99466.00
2018-06-25T18:04:33.979Z,99463.00
2018-06-25T18:07:03.790Z,99466.00
2018-06-25T18:09:33.569Z,99466.00
2018-06-25T18:12:03.384Z,99467.00
2018-06-25T18:14:33.171Z,99471.00
2018-06-25T18:17:02.955Z,99474.00
2018-06-25T18:19:32.728Z,99478.00
2018-06-25T18:22:02.564Z,99495.00
2018-06-25T18:24:32.353Z,99491.00
2018-06-25T18:27:02.297Z,99501.00
2018-06-25T18:29:32.081Z,99505.00
2018-06-25T18:32:01.882Z,99502.00
2018-06-25T18:34:31.707Z,99508.00
2018-06-25T18:37:01.489Z,99515.00
2018-06-25T18:39:31.313Z,99522.00
2018-06-25T18:42:01.091Z,99517.00
2018-06-25T18:44:30.850Z,99527.00
2018-06-25T18:47:00.656Z,99527.00
2018-06-25T18:49:30.454Z,99537.00
2018-06-25T18:52:00.246Z,99536.00
2018-06-25T18:54:30.030Z,99538.00
2018-06-25T18:56:59.780Z,99539.00
2018-06-25T18:59:29.700Z,99544.00
2018-06-25T19:01:59.489Z,99548.00
2018-06-25T19:04:29.321Z,99551.00
2018-06-25T19:06:59.061Z,99551.00
2018-06-25T19:09:29.821Z,99557.00
2018-06-25T19:11:59.604Z,99559.00
2018-06-25T19:14:29.522Z,99566.00
2018-06-25T19:16:59.308Z,99569.00
2018-06-25T19:19:29.176Z,99575.00
2018-06-25T19:21:58.951Z,99575.00
2018-06-25T19:24:28.732Z,99585.00
2018-06-25T19:26:58.735Z,99591.00
2018-06-25T19:29:28.504Z,99591.00
2018-06-25T19:31:58.316Z,99600.00
2018-06-25T19:34:28.096Z,99598.00
2018-06-25T19:36:57.740Z,99597.00
2018-06-25T19:39:28.014Z,99594.00
2018-06-25T19:41:57.812Z,99603.00
2018-06-25T19:44:27.643Z,99594.00
2018-06-25T19:46:57.435Z,99588.00
2018-06-25T19:49:27.180Z,99594.00
2018-06-25T19:51:57.032Z,99598.00
2018-06-25T19:54:26.885Z,99604.00
2018-06-25T19:56:56.691Z,99604.00
2018-06-25T19:59:26.558Z,99608.00
2018-06-25T20:01:56.460Z,99604.00
2018-06-25T20:04:26.463Z,99614.00
2018-06-25T20:06:56.605Z,99612.00
2018-06-25T20:09:26.795Z,99614.00
2018-06-25T20:11:56.676Z,99621.00
2018-06-25T20:14:26.688Z,99621.00
2018-06-25T20:16:56.481Z,99627.00
2018-06-25T20:19:26.334Z,99634.00
2018-06-25T20:21:56.150Z,99627.00
2018-06-25T20:24:25.967Z,99630.00
2018-06-25T20:26:55.936Z,99627.00
2018-06-25T20:29:25.795Z,99632.00
2018-06-25T20:31:55.861Z,99635.00
2018-06-25T20:34:26.337Z,99636.00
2018-06-25T20:36:56.266Z,99637.00
2018-06-25T20:39:26.055Z,99639.00
2018-06-25T20:41:56.010Z,99642.00
2018-06-25T20:44:25.875Z,99647.00
2018-06-25T20:46:55.807Z,99651.00
2018-06-25T20:49:25.566Z,99650.00
2018-06-25T20:51:55.425Z,99646.00
2018-06-25T20:54:25.221Z,99646.00
2018-06-25T20:56:55.115Z,99648.00
2018-06-25T20:59:24.921Z,99652.00
2018-06-25T21:01:54.791Z,99648.00
2018-06-25T21:04:24.588Z,99652.00
2018-06-25T21:06:54.457Z,99664.00
2018-06-25T21:09:24.220Z,99654.00
2018-06-25T21:11:54.085Z,99656.00
2018-06-25T21:14:23.839Z,99654.00
2018-06-25T21:16:53.700Z,99656.00
2018-06-25T21:19:23.437Z,99650.00
2018-06-25T21:21:53.261Z,99649.00
2018-06-25T21:24:23.064Z,99643.00
2018-06-25T21:26:52.873Z,99648.00
2018-06-25T21:29:22.728Z,99651.00
2018-06-25T21:31:52.575Z,99653.00
2018-06-25T21:34:22.370Z,99653.00
2018-06-25T21:36:52.237Z,99648.00
2018-06-25T21:39:22.027Z,99649.00
2018-06-25T21:41:51.868Z,99651.00
2018-06-25T21:44:21.648Z,99647.00
2018-06-25T21:46:51.415Z,99643.00
2018-06-25T21:49:21.248Z,99648.00
2018-06-25T21:51:50.975Z,99654.00
2018-06-25T21:54:20.780Z,99648.00
2018-06-25T21:56:50.544Z,99651.00
2018-06-25T21:59:20.356Z,99648.00
2018-06-25T22:01:54.944Z,99650.00
2018-06-25T22:04:25.319Z,99645.00
2018-06-25T22:06:55.094Z,99641.00
2018-06-25T22:09:24.973Z,99646.00
2018-06-25T22:11:54.790Z,99638.00
2018-06-25T22:14:24.539Z,99637.00
2018-06-25T22:16:54.353Z,99636.00
2018-06-25T22:19:24.157Z,99633.00
2018-06-25T22:21:53.921Z,99632.00
2018-06-25T22:24:23.738Z,99635.00
2018-06-25T22:26:54.071Z,99633.00
2018-06-25T22:29:23.930Z,99625.00
2018-06-25T22:31:53.976Z,99624.00
2018-06-25T22:34:23.814Z,99624.00
2018-06-25T22:36:53.533Z,99623.00
2018-06-25T22:39:23.250Z,99617.00
2018-06-25T22:41:53.046Z,99614.00
2018-06-25T22:44:22.936Z,99613.00
2018-06-25T22:46:52.736Z,99617.00
2018-06-25T22:49:22.606Z,99621.00
2018-06-25T22:51:52.480Z,99613.00
2018-06-25T22:54:22.303Z,99612.00
2018-06-25T22:56:52.088Z,99610.00
2018-06-25T22:59:21.857Z,99616.00
2018-06-25T23:01:51.691Z,99611.00
2018-06-25T23:04:21.523Z,99610.00
2018-06-25T23:06:51.433Z,99613.00
2018-06-25T23:09:21.278Z,99613.00
2018-06-25T23:11:51.043Z,99617.00
2018-06-25T23:14:20.818Z,99614.00
2018-06-25T23:16:50.643Z,99615.00
2018-06-25T23:19:20.526Z,99611.00
2018-06-25T23:21:50.755Z,99603.00
2018-06-25T23:24:20.440Z,99604.00
2018-06-25T23:26:50.247Z,99605.00
2018-06-25T23:29:20.061Z,99609.00
2018-06-25T23:31:49.765Z,99606.00
2018-06-25T23:34:19.618Z,99604.00
2018-06-25T23:36:49.534Z,99599.00
2018-06-25T23:39:19.302Z,99593.00
2018-06-25T23:41:49.092Z,99595.00
2018-06-25T23:44:18.826Z,99595.00
2018-06-25T23:46:48.550Z,99592.00
2018-06-25T23:49:18.309Z,99593.00
2018-06-25T23:51:48.118Z,99593.00
2018-06-25T23:54:17.884Z,99594.00
2018-06-25T23:56:47.652Z,99592.00
2018-06-25T23:59:17.469Z,99591.00
